Time;durP1;ratioP1;P1;durP2;ratioP2;P2;SDS_P1;SDS_P2;PMS_P1;PMS_P2;Temp;Humidity;BMP_temperature;BMP_pressure;BME280_temperature;BME280_humidity;BME280_pressure;Samples;Min_cycle;Max_cycle;Signal;HPM_P1;HPM_P2
2022/11/06 00:00:29;;;;;;;12.13;8.45;;;;;;;-1.03;100.00;93291.91;2131561;27;20113;-70
2022/11/06 00:01:30;;;;;;;17.70;9.38;;;;;;;-1.04;100.00;93294.88;2131460;27;20030;-69
2022/11/06 00:02:31;;;;;;;15.07;8.52;;;;;;;-1.09;100.00;93290.66;2131431;27;20476;-69
2022/11/06 00:03:33;;;;;;;16.77;9.75;;;;;;;-1.16;100.00;93290.47;2131115;27;20051;-69
2022/11/06 00:04:34;;;;;;;13.88;8.15;;;;;;;-1.27;100.00;93292.84;2130779;27;20029;-70
2022/11/06 00:06:59;;;;;;;13.88;8.35;;;;;;;-1.35;100.00;93282.50;2129631;27;20106;-69
2022/11/06 00:08:00;;;;;;;14.15;7.93;;;;;;;-1.41;100.00;93283.81;2131341;27;20034;-69
2022/11/06 00:09:04;;;;;;;10.30;7.57;;;;;;;-1.36;100.00;93284.38;2131561;27;20050;-70
2022/11/06 00:10:08;;;;;;;12.50;8.48;;;;;;;-1.37;100.00;93289.94;2130725;27;20027;-69
2022/11/06 00:11:11;;;;;;;13.23;7.53;;;;;;;-1.33;100.00;93282.91;2131520;27;20087;-70
2022/11/06 00:12:12;;;;;;;10.32;7.38;;;;;;;-1.29;100.00;93278.53;2127047;27;20453;-69
2022/11/06 00:13:13;;;;;;;12.32;7.20;;;;;;;-1.24;100.00;93278.28;2131230;27;20019;-70
2022/11/06 00:14:16;;;;;;;11.43;7.13;;;;;;;-1.09;100.00;93269.66;2131419;27;20030;-70
2022/11/06 00:15:20;;;;;;;14.05;7.55;;;;;;;-1.21;100.00;93275.00;2130710;27;20476;-70
2022/11/06 00:16:21;;;;;;;13.77;7.85;;;;;;;-1.24;100.00;93267.78;2131104;27;20031;-70
2022/11/06 00:17:22;;;;;;;14.05;7.15;;;;;;;-1.19;100.00;93266.78;2131503;27;20053;-69
2022/11/06 00:18:25;;;;;;;14.23;7.43;;;;;;;-1.24;100.00;93280.91;2131278;27;20548;-69
2022/11/06 00:19:27;;;;;;;14.60;7.47;;;;;;;-1.30;100.00;93271.75;2131281;27;20037;-69
2022/11/06 00:20:28;;;;;;;11.60;7.22;;;;;;;-1.22;100.00;93281.34;2130670;27;20103;-69
2022/11/06 00:21:30;;;;;;;13.07;7.75;;;;;;;-1.29;100.00;93271.41;2131508;27;20042;-69
2022/11/06 00:22:35;;;;;;;13.77;6.82;;;;;;;-1.25;100.00;93284.63;2122246;27;20467;-70
2022/11/06 00:23:38;;;;;;;11.65;7.47;;;;;;;-1.17;100.00;93278.47;2122617;27;20031;-69
2022/11/06 00:24:39;;;;;;;13.23;7.53;;;;;;;-1.10;100.00;93276.03;2131276;27;20364;-69
2022/11/06 00:25:40;;;;;;;13.35;7.47;;;;;;;-1.13;100.00;93281.19;2130448;27;20023;-69
2022/11/06 00:26:42;;;;;;;13.20;7.05;;;;;;;-1.22;100.00;93275.34;2131324;27;20031;-69
2022/11/06 00:27:43;;;;;;;12.07;7.15;;;;;;;-1.24;100.00;93267.78;2131091;27;20464;-69
2022/11/06 00:28:44;;;;;;;10.57;6.07;;;;;;;-1.23;100.00;93273.78;2131333;27;20463;-71
2022/11/06 00:29:45;;;;;;;14.15;6.50;;;;;;;-1.26;100.00;93272.63;2131450;27;20038;-69
2022/11/06 00:30:46;;;;;;;9.02;5.95;;;;;;;-1.25;100.00;93276.75;2130626;27;20475;-68
2022/11/06 00:31:48;;;;;;;9.13;5.95;;;;;;;-1.31;100.00;93278.88;2131277;27;20078;-69
2022/11/06 00:32:49;;;;;;;7.82;5.57;;;;;;;-1.35;100.00;93274.63;2131252;27;20026;-69
2022/11/06 00:33:52;;;;;;;11.00;5.72;;;;;;;-1.32;100.00;93279.19;2130887;27;20368;-69
2022/11/06 00:34:53;;;;;;;6.50;5.53;;;;;;;-1.32;100.00;93277.34;2131252;27;20110;-69
2022/11/06 00:35:54;;;;;;;8.38;6.40;;;;;;;-1.27;100.00;93278.97;2130952;27;20046;-69
2022/11/06 00:36:55;;;;;;;8.48;5.88;;;;;;;-1.27;100.00;93284.22;2131300;27;20039;-69
2022/11/06 00:37:56;;;;;;;11.13;6.38;;;;;;;-1.27;100.00;93286.84;2131359;27;20027;-68
2022/11/06 00:38:58;;;;;;;8.32;5.85;;;;;;;-1.31;100.00;93278.88;2131292;27;20129;-70
2022/11/06 00:40:00;;;;;;;9.40;5.90;;;;;;;-1.38;100.00;93283.16;2131320;27;20033;-70
2022/11/06 00:41:03;;;;;;;10.05;6.43;;;;;;;-1.35;100.00;93282.50;2130653;27;20054;-68
2022/11/06 00:42:05;;;;;;;11.77;6.20;;;;;;;-1.38;100.00;93286.53;2131293;27;20019;-69
2022/11/06 00:43:06;;;;;;;8.82;6.28;;;;;;;-1.43;100.00;93289.41;2131116;27;20022;-70
2022/11/06 00:44:08;;;;;;;8.48;5.50;;;;;;;-1.41;100.00;93289.84;2130606;27;20022;-69
2022/11/06 00:45:10;;;;;;;11.73;6.07;;;;;;;-1.42;100.00;93288.31;2131257;27;20034;-69
2022/11/06 00:46:12;;;;;;;7.07;5.13;;;;;;;-1.34;100.00;93291.88;2130422;27;20038;-69
2022/11/06 00:47:13;;;;;;;7.25;5.65;;;;;;;-1.43;100.00;93283.41;2126996;27;20027;-70
2022/11/06 00:48:14;;;;;;;7.47;5.53;;;;;;;-1.42;100.00;93287.56;2131141;27;20027;-70
2022/11/06 00:49:14;;;;;;;7.30;5.03;;;;;;;-1.47;100.00;93287.81;2131031;27;20768;-70
2022/11/06 00:50:16;;;;;;;9.57;5.30;;;;;;;-1.48;100.00;93292.28;2131044;27;20038;-69
2022/11/06 00:51:39;;;;;;;7.00;5.07;;;;;;;-1.50;100.00;93294.47;2130468;27;20102;-69
2022/11/06 00:52:40;;;;;;;6.65;5.22;;;;;;;-1.49;100.00;93289.97;2131019;27;20026;-70
2022/11/06 00:53:42;;;;;;;12.20;5.28;;;;;;;-1.47;100.00;93278.06;2130965;27;20030;-69
2022/11/06 00:54:43;;;;;;;9.77;5.85;;;;;;;-1.50;100.00;93277.97;2126966;27;20041;-69
2022/11/06 00:55:44;;;;;;;6.63;5.07;;;;;;;-1.49;100.00;93282.13;2130693;27;20444;-69
2022/11/06 00:56:45;;;;;;;6.13;5.07;;;;;;;-1.51;100.00;93279.84;2129707;27;20027;-69
2022/11/06 00:57:46;;;;;;;9.23;5.05;;;;;;;-1.50;100.00;93283.22;2131107;27;20117;-69
2022/11/06 00:58:47;;;;;;;9.80;5.32;;;;;;;-1.56;100.00;93277.47;2131068;27;20131;-69
2022/11/06 00:59:48;;;;;;;9.70;4.95;;;;;;;-1.56;100.00;93285.34;2130999;27;20034;-69
2022/11/06 01:00:49;;;;;;;8.38;5.25;;;;;;;-1.62;100.00;93279.59;2131021;27;20030;-69
2022/11/06 01:01:50;;;;;;;6.82;5.22;;;;;;;-1.63;100.00;93278.03;2130509;27;20050;-70
2022/11/06 01:02:51;;;;;;;8.18;5.30;;;;;;;-1.56;100.00;93277.47;2131032;27;20079;-69
2022/11/06 01:03:58;;;;;;;8.88;5.45;;;;;;;-1.57;100.00;93273.34;2130745;27;20099;-70
2022/11/06 01:04:59;;;;;;;9.88;5.40;;;;;;;-1.66;100.00;93275.34;2130919;27;20031;-70
2022/11/06 01:06:06;;;;;;;6.28;4.90;;;;;;;-1.55;100.00;93277.13;2130930;27;20023;-70
2022/11/06 01:07:07;;;;;;;11.70;5.65;;;;;;;-1.42;100.00;93274.44;2127788;27;20503;-70
2022/11/06 01:08:08;;;;;;;7.32;5.57;;;;;;;-1.48;100.00;93273.94;2130831;27;20019;-70
2022/11/06 01:09:15;;;;;;;7.10;4.70;;;;;;;-1.39;100.00;93273.78;2130945;27;20057;-69
2022/11/06 01:10:16;;;;;;;5.47;4.70;;;;;;;-1.42;100.00;93277.06;2127104;27;20029;-70
2022/11/06 01:11:23;;;;;;;7.18;4.53;;;;;;;-1.49;100.00;93275.03;2131043;27;20023;-69
2022/11/06 01:12:25;;;;;;;7.80;4.50;;;;;;;-1.54;100.00;93276.06;2130433;27;20023;-70
2022/11/06 01:13:26;;;;;;;7.75;5.25;;;;;;;-1.54;100.00;93268.19;2130606;27;20068;-70
2022/11/06 01:14:27;;;;;;;6.50;4.80;;;;;;;-1.47;100.00;93279.94;2130938;27;20512;-70
2022/11/06 01:15:28;;;;;;;6.93;4.70;;;;;;;-1.54;100.00;93275.25;2131012;27;20026;-70
2022/11/06 01:16:29;;;;;;;6.22;5.13;;;;;;;-1.54;100.00;93278.66;2130705;27;20042;-70
2022/11/06 01:17:30;;;;;;;5.55;4.85;;;;;;;-1.57;100.00;93278.56;2130097;27;20030;-69
2022/11/06 01:18:31;;;;;;;7.18;4.95;;;;;;;-1.54;100.00;93281.28;2130927;27;20026;-69
2022/11/06 01:19:32;;;;;;;12.48;5.03;;;;;;;-1.59;100.00;93286.00;2130702;27;20094;-69
2022/11/06 01:20:33;;;;;;;11.02;5.95;;;;;;;-1.67;100.00;93287.66;2130900;27;20485;-71
2022/11/06 01:21:38;;;;;;;9.10;5.18;;;;;;;-1.68;100.00;93288.75;2131053;27;20410;-70
2022/11/06 01:22:39;;;;;;;10.73;5.10;;;;;;;-1.66;100.00;93283.97;2129989;27;20414;-69
2022/11/06 01:23:40;;;;;;;6.97;4.75;;;;;;;-1.74;100.00;93284.88;2130650;27;20022;-70
2022/11/06 01:24:41;;;;;;;10.75;4.85;;;;;;;-1.74;100.00;93287.47;2130816;27;20109;-70
2022/11/06 01:25:42;;;;;;;6.85;5.22;;;;;;;-1.70;100.00;93285.72;2126801;27;20031;-70
2022/11/06 01:26:44;;;;;;;8.73;5.03;;;;;;;-1.67;100.00;93289.53;2130847;27;20026;-70
2022/11/06 01:27:45;;;;;;;7.10;5.10;;;;;;;-1.65;100.00;93276.84;2125803;27;20031;-70
2022/11/06 01:28:46;;;;;;;6.65;5.07;;;;;;;-1.64;100.00;93284.38;2131017;27;20056;-70
2022/11/06 01:29:47;;;;;;;6.35;4.60;;;;;;;-1.67;100.00;93279.03;2130734;27;20026;-70
2022/11/06 01:30:48;;;;;;;8.07;4.93;;;;;;;-1.68;100.00;93282.75;2130930;27;20118;-70
2022/11/06 01:31:49;;;;;;;7.15;4.40;;;;;;;-1.72;100.00;93284.53;2130838;27;20038;-70
2022/11/06 01:32:50;;;;;;;8.40;4.63;;;;;;;-1.70;100.00;93283.09;2131038;27;20031;-70
2022/11/06 01:33:52;;;;;;;6.47;4.88;;;;;;;-1.71;100.00;93284.19;2118555;27;20378;-70
2022/11/06 01:34:53;;;;;;;9.23;5.47;;;;;;;-1.75;100.00;93288.59;2121808;27;20031;-69
2022/11/06 01:35:54;;;;;;;5.50;4.88;;;;;;;-1.67;100.00;93286.91;2130852;27;20027;-70
2022/11/06 01:36:55;;;;;;;8.45;5.22;;;;;;;-1.68;100.00;93282.75;2121406;27;20023;-69
2022/11/06 01:37:56;;;;;;;19.88;6.47;;;;;;;-1.69;100.00;93279.38;2121613;27;20031;-70
2022/11/06 01:38:59;;;;;;;11.13;5.85;;;;;;;-1.67;100.00;93279.78;2130143;27;20449;-69
2022/11/06 01:40:00;;;;;;;8.30;5.18;;;;;;;-1.66;100.00;93277.97;2130648;27;20031;-69
2022/11/06 01:41:02;;;;;;;7.85;4.93;;;;;;;-1.75;100.00;93282.59;2130706;27;20094;-69
2022/11/06 01:42:03;;;;;;;6.97;5.30;;;;;;;-1.82;100.00;93273.44;2130664;27;20121;-70
2022/11/06 01:43:09;;;;;;;8.77;4.97;;;;;;;-1.89;100.00;93269.84;2130539;27;20027;-70
2022/11/06 01:44:34;;;;;;;6.03;4.47;;;;;;;-1.77;100.00;93272.44;2126678;27;20030;-70
2022/11/06 01:45:37;;;;;;;8.05;4.70;;;;;;;-1.78;100.00;93276.16;2129802;27;20037;-69
2022/11/06 01:46:38;;;;;;;10.63;5.20;;;;;;;-1.85;100.00;93262.84;2130655;27;20062;-70
2022/11/06 01:47:39;;;;;;;9.63;5.55;;;;;;;-1.83;100.00;93269.28;2130827;27;20034;-70
2022/11/06 01:48:45;;;;;;;5.75;4.78;;;;;;;-1.86;100.00;93272.56;2130189;27;20916;-70
2022/11/06 01:49:47;;;;;;;7.80;5.13;;;;;;;-1.85;100.00;93270.69;2126969;27;20022;-70
2022/11/06 01:50:51;;;;;;;7.43;4.90;;;;;;;-1.85;100.00;93268.84;2130554;27;20034;-70
2022/11/06 01:51:57;;;;;;;5.88;4.65;;;;;;;-1.84;100.00;93262.53;2130701;27;20054;-70
2022/11/06 01:53:01;;;;;;;7.82;4.60;;;;;;;-1.92;100.00;93257.44;2130589;27;20023;-70
2022/11/06 01:54:04;;;;;;;9.98;5.15;;;;;;;-1.83;100.00;93258.81;2127233;27;20131;-70
2022/11/06 01:55:14;;;;;;;7.60;4.75;;;;;;;-1.86;100.00;93251.59;2129593;27;20019;-70
2022/11/06 01:56:16;;;;;;;7.18;5.28;;;;;;;-1.90;100.00;93250.75;2126641;27;20028;-69
2022/11/06 01:57:17;;;;;;;10.18;5.38;;;;;;;-1.95;100.00;93252.84;2130623;27;20398;-69
2022/11/06 01:58:21;;;;;;;8.00;5.22;;;;;;;-1.86;100.00;93256.84;2130460;27;20476;-70
2022/11/06 01:59:26;;;;;;;7.90;6.47;;;;;;;-1.85;100.00;93252.38;2129617;27;20086;-69
2022/11/06 02:00:29;;;;;;;7.32;5.60;;;;;;;-1.84;100.00;93251.28;2121303;27;20106;-69
2022/11/06 02:01:31;;;;;;;9.15;5.75;;;;;;;-1.89;100.00;93249.69;2112844;28;20024;-70
2022/11/06 02:02:33;;;;;;;7.32;5.50;;;;;;;-1.96;100.00;93254.72;2113343;27;20063;-70
2022/11/06 02:03:41;;;;;;;7.85;5.32;;;;;;;-1.87;100.00;93249.34;2130291;27;20453;-68
2022/11/06 02:04:47;;;;;;;8.48;5.60;;;;;;;-1.83;100.00;93247.56;2112933;28;20031;-70
2022/11/06 02:05:48;;;;;;;10.02;5.28;;;;;;;-1.85;100.00;93253.13;2122218;27;20027;-70
2022/11/06 02:06:49;;;;;;;7.60;5.40;;;;;;;-1.93;100.00;93253.25;2130473;27;20018;-69
2022/11/06 02:07:52;;;;;;;8.30;5.47;;;;;;;-1.92;100.00;93260.06;2130278;27;20105;-70
2022/11/06 02:08:53;;;;;;;9.05;5.30;;;;;;;-2.03;100.00;93255.25;2130485;27;20461;-69
2022/11/06 02:09:54;;;;;;;6.20;5.07;;;;;;;-1.98;100.00;93256.88;2129733;27;20524;-69
2022/11/06 02:10:55;;;;;;;7.25;5.32;;;;;;;-2.08;100.00;93259.97;2130407;27;20034;-69
2022/11/06 02:12:12;;;;;;;10.85;5.55;;;;;;;-1.99;100.00;93260.59;2130398;27;20430;-70
2022/11/06 02:13:49;;;;;;;7.38;4.90;;;;;;;-1.88;100.00;93258.28;2120994;27;20027;-69
2022/11/06 02:16:33;;;;;;;;;;;;;;;-1.94;100.00;93254.38;2145404;27;20550;-69
2022/11/06 02:17:34;;;;;;;7.25;4.53;;;;;;;-1.96;100.00;93256.56;2137985;27;19914;-69
2022/11/06 02:19:14;;;;;;;6.90;4.60;;;;;;;-2.07;100.00;93249.16;2137960;27;20456;-70
2022/11/06 02:20:36;;;;;;;8.73;5.30;;;;;;;-2.08;100.00;93255.50;2105160;27;20043;-68
2022/11/06 02:21:57;;;;;;;7.88;4.95;;;;;;;-2.04;100.00;93253.75;2138054;27;20359;-70
2022/11/06 02:23:22;;;;;;;10.05;5.07;;;;;;;-2.00;100.00;93255.72;2135807;27;20037;-70
2022/11/06 02:24:42;;;;;;;8.30;4.82;;;;;;;-1.91;100.00;93253.72;2135241;27;20101;-70
2022/11/06 02:26:21;;;;;;;10.95;5.10;;;;;;;-1.86;100.00;93248.22;2136010;27;20031;-69
2022/11/06 02:27:27;;;;;;;6.68;4.80;;;;;;;-1.93;100.00;93248.03;2135114;27;20783;-69
2022/11/06 02:28:44;;;;;;;8.50;5.28;;;;;;;-1.93;100.00;93242.78;2137854;27;20476;-69
2022/11/06 02:30:08;;;;;;;10.23;5.70;;;;;;;-2.07;100.00;93257.03;2124596;27;20027;-70
2022/11/06 02:31:14;;;;;;;9.02;4.63;;;;;;;-2.03;100.00;93246.66;2131833;27;20031;-69
2022/11/06 02:32:40;;;;;;;8.48;5.15;;;;;;;-2.11;100.00;93243.09;2133854;27;20434;-71
2022/11/06 02:33:50;;;;;;;7.50;5.22;;;;;;;-2.09;100.00;93246.13;2137900;27;20026;-70
2022/11/06 02:34:55;;;;;;;8.80;5.53;;;;;;;-2.20;100.00;93231.22;2138010;27;20034;-70
2022/11/06 02:36:01;;;;;;;9.00;4.70;;;;;;;-2.18;100.00;93229.03;2137239;27;20447;-70
2022/11/06 02:37:09;;;;;;;9.20;5.15;;;;;;;-2.07;100.00;93237.94;2137964;27;20026;-70
2022/11/06 02:38:15;;;;;;;7.70;5.20;;;;;;;-2.01;100.00;93235.84;2138083;27;20041;-70
2022/11/06 02:39:23;;;;;;;7.93;5.07;;;;;;;-1.94;100.00;93228.19;2134411;27;20037;-70
2022/11/06 02:40:32;;;;;;;6.90;5.05;;;;;;;-1.95;100.00;93230.03;2137569;27;20238;-70
2022/11/06 02:41:38;;;;;;;8.75;4.93;;;;;;;-2.00;100.00;93234.75;2136421;27;20164;-69
2022/11/06 02:42:49;;;;;;;7.03;4.78;;;;;;;-2.14;100.00;93230.66;2133783;27;20041;-69
2022/11/06 02:43:54;;;;;;;8.85;5.05;;;;;;;-2.17;100.00;93226.06;2137426;27;20026;-68
2022/11/06 02:44:57;;;;;;;5.55;4.72;;;;;;;-2.17;100.00;93231.31;2128305;27;20050;-69
2022/11/06 02:46:04;;;;;;;7.93;4.85;;;;;;;-2.29;100.00;93216.41;2126191;27;20353;-69
2022/11/06 02:47:09;;;;;;;8.38;4.65;;;;;;;-2.25;100.00;93224.34;2136985;27;20019;-69
2022/11/06 02:48:13;;;;;;;12.10;4.97;;;;;;;-2.21;100.00;93217.38;2137871;27;20027;-69
2022/11/06 02:49:24;;;;;;;7.63;5.28;;;;;;;-2.25;100.00;93219.13;2133996;27;20014;-70
2022/11/06 02:50:31;;;;;;;9.18;4.78;;;;;;;-2.30;100.00;93212.25;2137754;27;20018;-70
2022/11/06 02:51:38;;;;;;;5.53;4.20;;;;;;;-2.17;100.00;93214.84;2136828;27;20098;-69
2022/11/06 02:52:51;;;;;;;7.10;4.57;;;;;;;-2.21;100.00;93216.59;2137904;27;20034;-71
2022/11/06 02:53:59;;;;;;;5.45;4.20;;;;;;;-2.16;100.00;93211.88;2137600;27;20037;-69
2022/11/06 02:55:15;;;;;;;5.75;4.03;;;;;;;-2.16;100.00;93204.03;2137767;27;20045;-69
2022/11/06 02:56:21;;;;;;;5.82;3.90;;;;;;;-2.18;100.00;93201.00;2133204;27;20023;-69
2022/11/06 02:57:25;;;;;;;10.05;4.13;;;;;;;-2.06;100.00;93205.44;2137738;27;20031;-69
2022/11/06 02:58:34;;;;;;;5.95;4.07;;;;;;;-2.04;100.00;93211.84;2137758;27;20026;-70
2022/11/06 03:00:06;;;;;;;7.85;4.18;;;;;;;-1.96;100.00;93204.94;2137760;27;20405;-70
2022/11/06 03:01:14;;;;;;;6.18;4.00;;;;;;;-1.96;100.00;93204.94;2137002;27;20026;-70
2022/11/06 03:02:26;;;;;;;10.93;4.30;;;;;;;-2.07;100.00;93196.78;2136810;27;20585;-69
2022/11/06 03:03:30;;;;;;;10.00;4.60;;;;;;;-2.14;100.00;93201.84;2137464;27;20459;-70
2022/11/06 03:04:42;;;;;;;5.05;4.20;;;;;;;-2.10;100.00;93194.09;2137589;27;20031;-69
2022/11/06 03:05:52;;;;;;;8.07;5.22;;;;;;;-2.18;100.00;93195.75;2133339;27;20101;-69
2022/11/06 03:07:07;;;;;;;5.70;4.13;;;;;;;-2.18;100.00;93195.75;2136962;27;20019;-69
2022/11/06 03:08:22;;;;;;;5.80;3.80;;;;;;;-2.24;100.00;93202.31;2137644;27;20066;-70
2022/11/06 03:09:28;;;;;;;4.72;3.63;;;;;;;-2.15;100.00;93196.94;2135017;27;20410;-70
2022/11/06 03:10:36;;;;;;;3.92;3.55;;;;;;;-2.21;100.00;93199.03;2137583;27;20022;-70
2022/11/06 03:11:38;;;;;;;5.07;3.30;;;;;;;-2.09;100.00;93193.00;2137504;27;20018;-69
2022/11/06 03:12:57;;;;;;;5.07;3.97;;;;;;;-2.14;100.00;93186.16;2132596;27;20030;-69
2022/11/06 03:14:11;;;;;;;4.80;3.78;;;;;;;-2.28;100.00;93191.00;2135285;27;20031;-69
2022/11/06 03:15:32;;;;;;;6.60;4.07;;;;;;;-2.25;100.00;93186.94;2128195;27;20042;-70
2022/11/06 03:16:39;;;;;;;4.82;3.33;;;;;;;-2.26;100.00;93185.44;2137562;27;20090;-70
2022/11/06 03:17:58;;;;;;;5.05;3.40;;;;;;;-2.22;100.00;93181.06;2136717;27;20447;-69
2022/11/06 03:19:15;;;;;;;5.00;3.63;;;;;;;-2.29;100.00;93179.00;2128251;27;20031;-70
2022/11/06 03:20:27;;;;;;;5.00;3.85;;;;;;;-2.25;100.00;93182.47;2126861;27;20119;-69
2022/11/06 03:21:40;;;;;;;6.07;3.90;;;;;;;-2.28;100.00;93181.28;2137283;27;20093;-68
2022/11/06 03:22:51;;;;;;;5.18;3.45;;;;;;;-2.31;100.00;93181.19;2136690;27;20465;-70
2022/11/06 03:24:03;;;;;;;4.95;3.78;;;;;;;-2.29;100.00;93179.75;2134214;27;20030;-69
2022/11/06 03:25:15;;;;;;;8.63;4.10;;;;;;;-2.36;100.00;93184.81;2137254;27;20045;-69
2022/11/06 03:26:21;;;;;;;5.45;3.50;;;;;;;-2.48;100.00;93173.63;2133729;27;20105;-71
2022/11/06 03:27:32;;;;;;;6.78;3.88;;;;;;;-2.47;100.00;93168.03;2133496;27;20038;-70
2022/11/06 03:28:38;;;;;;;4.78;3.90;;;;;;;-2.44;100.00;93169.25;2131715;27;20045;-71
2022/11/06 03:29:44;;;;;;;7.85;3.60;;;;;;;-2.43;100.00;93166.28;2131593;27;20026;-70
2022/11/06 03:30:51;;;;;;;5.57;4.82;;;;;;;-2.43;100.00;93168.91;2127810;27;20034;-70
2022/11/06 03:32:00;;;;;;;5.40;3.90;;;;;;;-2.43;100.00;93161.06;2131767;27;20034;-70
2022/11/06 03:33:23;;;;;;;4.53;3.63;;;;;;;-2.35;100.00;93168.00;2131079;27;20041;-70
2022/11/06 03:34:31;;;;;;;6.65;3.88;;;;;;;-2.32;100.00;93169.22;2129096;27;20523;-70
2022/11/06 03:35:39;;;;;;;4.72;4.10;;;;;;;-2.35;100.00;93162.78;2131803;27;20035;-70
2022/11/06 03:36:51;;;;;;;7.95;4.03;;;;;;;-2.49;100.00;93161.63;2131772;27;20022;-70
2022/11/06 03:38:13;;;;;;;4.43;3.90;;;;;;;-2.37;100.00;93153.72;2128565;27;20110;-69
2022/11/06 03:39:19;;;;;;;6.20;3.75;;;;;;;-2.43;100.00;93158.44;2131426;27;20030;-70
2022/11/06 03:40:25;;;;;;;5.13;3.58;;;;;;;-2.44;100.00;93159.53;2131599;27;20034;-70
2022/11/06 03:41:44;;;;;;;7.10;4.07;;;;;;;-2.43;100.00;93168.91;2131728;27;20457;-69
2022/11/06 03:42:49;;;;;;;5.05;4.03;;;;;;;-2.30;100.00;93159.16;2127684;27;20152;-70
2022/11/06 03:43:53;;;;;;;6.05;3.75;;;;;;;-2.35;100.00;93160.16;2130641;27;20090;-70
2022/11/06 03:44:59;;;;;;;8.00;4.22;;;;;;;-2.41;100.00;93148.41;2131610;27;20034;-68
2022/11/06 03:46:04;;;;;;;5.00;3.53;;;;;;;-2.41;100.00;93143.19;2131498;27;20026;-69
2022/11/06 03:47:22;;;;;;;5.97;4.00;;;;;;;-2.45;100.00;93144.19;2131469;27;20042;-69
2022/11/06 03:48:39;;;;;;;7.47;4.03;;;;;;;-2.36;100.00;93148.16;2128951;27;20813;-69
2022/11/06 03:49:50;;;;;;;6.10;3.55;;;;;;;-2.47;100.00;93157.56;2131221;27;20454;-70
2022/11/06 03:51:28;;;;;;;4.97;4.18;;;;;;;-2.31;100.00;93158.41;2128457;27;20477;-69
2022/11/06 03:52:34;;;;;;;4.82;3.10;;;;;;;-2.41;100.00;93168.59;2088357;28;20056;-69
2022/11/06 03:53:45;;;;;;;4.93;4.15;;;;;;;-2.41;100.00;93152.88;2120232;27;20079;-69
2022/11/06 03:55:17;;;;;;;6.00;4.07;;;;;;;-2.40;100.00;93157.78;2128015;27;20030;-69
2022/11/06 03:56:34;;;;;;;5.80;4.00;;;;;;;-2.46;100.00;93153.84;2124941;27;20088;-69
2022/11/06 03:57:42;;;;;;;8.60;3.85;;;;;;;-2.55;100.00;93158.47;2131488;27;20461;-69
2022/11/06 03:58:47;;;;;;;4.57;3.83;;;;;;;-2.49;100.00;93151.16;2127376;27;20086;-70
2022/11/06 03:59:54;;;;;;;6.25;3.85;;;;;;;-2.54;100.00;93152.91;2130726;27;20029;-70
2022/11/06 04:00:58;;;;;;;4.68;3.40;;;;;;;-2.55;100.00;93150.63;2131243;27;20341;-69
2022/11/06 04:02:01;;;;;;;8.30;4.28;;;;;;;-2.48;100.00;93148.22;2131146;27;20035;-69
2022/11/06 04:03:15;;;;;;;5.70;4.07;;;;;;;-2.37;100.00;93149.28;2131376;27;20030;-70
2022/11/06 04:04:37;;;;;;;8.55;4.15;;;;;;;-2.40;100.00;93147.31;2127075;27;20464;-69
2022/11/06 04:05:42;;;;;;;5.13;3.63;;;;;;;-2.50;100.00;93141.78;2131230;27;20048;-69
2022/11/06 04:06:52;;;;;;;6.43;4.13;;;;;;;-2.49;100.00;93138.84;2127486;27;20034;-70
2022/11/06 04:14:44;;;;;;;;;;;;;;;-2.42;100.00;93141.63;2131938;27;20122;-69
2022/11/06 04:15:51;;;;;;;4.93;3.03;;;;;;;-2.52;100.00;93139.50;2127568;27;20397;-69
2022/11/06 04:16:57;;;;;;;4.38;3.40;;;;;;;-2.54;100.00;93139.09;2131437;27;20014;-69
2022/11/06 04:17:58;;;;;;;4.30;3.63;;;;;;;-2.54;100.00;93142.47;2131458;27;20035;-69
2022/11/06 04:18:59;;;;;;;4.38;3.63;;;;;;;-2.59;100.00;93137.47;2131405;27;20031;-69
2022/11/06 04:20:04;;;;;;;6.90;3.28;;;;;;;-2.64;100.00;93136.91;2131294;27;20027;-70
2022/11/06 04:21:40;;;;;;;5.15;3.55;;;;;;;-2.44;100.00;93132.59;2130334;27;20014;-71
2022/11/06 04:22:58;;;;;;;6.65;3.38;;;;;;;-2.43;100.00;93129.66;2130567;27;20126;-69
2022/11/06 04:26:35;;;;;;;4.38;3.28;;;;;;;-2.56;100.00;93128.16;2129795;27;20018;-70
2022/11/06 04:27:59;;;;;;;4.32;3.10;;;;;;;-2.61;100.00;93131.78;2130239;27;20071;-70
2022/11/06 04:29:36;;;;;;;4.35;3.30;;;;;;;-2.55;100.00;93124.44;2116684;27;20031;-71
2022/11/06 04:31:00;;;;;;;3.47;2.70;;;;;;;-2.68;100.00;93122.97;2130485;27;20089;-70
2022/11/06 04:32:21;;;;;;;5.43;2.90;;;;;;;-2.73;100.00;93123.97;2128923;27;20555;-70
2022/11/06 04:33:39;;;;;;;5.53;3.03;;;;;;;-2.74;100.00;93125.06;2127509;27;20031;-70
2022/11/06 04:35:07;;;;;;;5.88;3.25;;;;;;;-2.81;100.00;93122.25;2131149;27;20097;-70
2022/11/06 04:36:47;;;;;;;3.75;3.30;;;;;;;-2.79;100.00;93120.81;2129824;27;20026;-70
2022/11/06 04:38:27;;;;;;;4.93;3.05;;;;;;;-2.62;100.00;93122.41;2096079;28;20509;-69
2022/11/06 04:39:39;;;;;;;3.47;3.00;;;;;;;-2.64;100.00;93119.34;2088688;28;20044;-69
2022/11/06 04:40:50;;;;;;;4.00;3.10;;;;;;;-2.67;100.00;93112.19;2096173;28;20034;-68
2022/11/06 04:41:57;;;;;;;4.32;3.70;;;;;;;-2.62;100.00;93122.41;2093647;28;20029;-70
2022/11/06 04:43:04;;;;;;;5.05;3.78;;;;;;;-2.81;100.00;93125.66;2096232;28;20368;-70
2022/11/06 04:44:16;;;;;;;3.92;3.28;;;;;;;-2.78;100.00;93127.56;2128972;27;20472;-69
2022/11/06 04:45:23;;;;;;;4.10;3.10;;;;;;;-2.77;100.00;93125.72;2126864;27;20046;-69
2022/11/06 04:46:35;;;;;;;4.57;3.20;;;;;;;-2.71;100.00;93128.88;2130169;27;20067;-69
2022/11/06 04:47:37;;;;;;;4.50;3.00;;;;;;;-2.80;100.00;93129.78;2131062;27;20405;-70
2022/11/06 04:48:40;;;;;;;6.50;3.40;;;;;;;-2.79;100.00;93128.69;2130990;27;20015;-69
2022/11/06 04:49:43;;;;;;;4.55;3.70;;;;;;;-2.81;100.00;93123.03;2131122;27;20718;-70
2022/11/06 04:50:49;;;;;;;5.60;2.97;;;;;;;-2.81;100.00;93123.03;2126681;27;20030;-69
2022/11/06 04:51:50;;;;;;;4.30;3.15;;;;;;;-2.88;100.00;93130.66;2130519;27;20030;-70
2022/11/06 04:52:52;;;;;;;3.80;3.20;;;;;;;-2.83;100.00;93127.06;2131092;27;20023;-69
2022/11/06 04:53:54;;;;;;;4.18;3.45;;;;;;;-2.84;100.00;93128.16;2130642;27;20139;-69
2022/11/06 04:54:57;;;;;;;5.13;3.20;;;;;;;-2.81;100.00;93123.03;2131047;27;20022;-69
2022/11/06 04:56:19;;;;;;;5.22;3.53;;;;;;;-2.75;100.00;93131.41;2130979;27;20360;-69
2022/11/06 04:57:24;;;;;;;4.18;3.22;;;;;;;-2.76;100.00;93135.09;2123697;27;20063;-69
2022/11/06 04:58:25;;;;;;;4.75;3.72;;;;;;;-2.78;100.00;93132.81;2131054;27;20071;-69
2022/11/06 04:59:28;;;;;;;5.97;3.53;;;;;;;-2.85;100.00;93131.88;2130971;27;20137;-69
2022/11/06 05:00:29;;;;;;;5.45;3.33;;;;;;;-2.84;100.00;93136.75;2131059;27;20035;-69
2022/11/06 05:01:30;;;;;;;3.90;3.00;;;;;;;-2.81;100.00;93130.09;2130894;27;20066;-70
2022/11/06 05:02:31;;;;;;;3.85;3.03;;;;;;;-2.79;100.00;93131.28;2130016;27;20364;-69
2022/11/06 05:03:32;;;;;;;4.32;3.20;;;;;;;-2.79;100.00;93122.69;2130619;27;20215;-70
2022/11/06 05:04:33;;;;;;;6.35;3.53;;;;;;;-2.78;100.00;93134.66;2130954;27;20023;-69
2022/11/06 05:05:34;;;;;;;4.07;3.35;;;;;;;-2.81;100.00;93130.88;2130872;27;20018;-70
2022/11/06 05:06:35;;;;;;;4.75;3.45;;;;;;;-2.81;100.00;93132.69;2130848;27;20014;-70
2022/11/06 05:07:37;;;;;;;6.05;3.53;;;;;;;-2.89;100.00;93129.16;2130359;27;20487;-69
2022/11/06 05:08:38;;;;;;;4.18;3.25;;;;;;;-2.86;100.00;93144.16;2130934;27;20030;-69
2022/11/06 05:09:40;;;;;;;6.30;3.40;;;;;;;-2.88;100.00;93133.28;2130823;27;20535;-70
2022/11/06 05:10:42;;;;;;;3.33;3.03;;;;;;;-2.88;100.00;93133.28;2130862;27;20072;-69
2022/11/06 05:11:43;;;;;;;4.55;3.33;;;;;;;-2.91;100.00;93141.00;2126755;27;20034;-68
2022/11/06 05:12:46;;;;;;;5.43;3.20;;;;;;;-2.83;100.00;93137.50;2130520;27;20471;-69
2022/11/06 05:13:52;;;;;;;5.25;3.40;;;;;;;-2.86;100.00;93136.31;2130678;27;20045;-69
2022/11/06 05:14:53;;;;;;;6.00;3.58;;;;;;;-2.89;100.00;93131.00;2130882;27;20421;-69
2022/11/06 05:15:58;;;;;;;5.00;3.25;;;;;;;-2.81;100.00;93136.09;2130606;27;20046;-69
2022/11/06 05:16:59;;;;;;;4.57;3.45;;;;;;;-2.89;100.00;93128.38;2130753;27;20114;-70
2022/11/06 05:18:01;;;;;;;8.88;3.40;;;;;;;-2.93;100.00;93127.53;2130041;27;20063;-69
2022/11/06 05:19:02;;;;;;;6.22;2.95;;;;;;;-2.98;100.00;93127.75;2130776;27;20029;-69
2022/11/06 05:20:04;;;;;;;3.70;2.85;;;;;;;-3.00;100.00;93117.59;2130769;27;20070;-70
2022/11/06 05:23:44;;;;;;;9.88;8.90;;;;;;;-2.93;100.00;93117.81;2130382;27;20502;-70
2022/11/06 05:24:46;;;;;;;8.02;5.53;;;;;;;-2.94;100.00;93116.31;2121462;27;20034;-69
2022/11/06 05:25:47;;;;;;;7.85;5.13;;;;;;;-2.96;100.00;93110.63;2121795;27;20106;-69